Aviation Digital Data Service (ADDS)

Output produced by METARs form (0448 UTC 21 September 2018)
found at http://www.aviationweather.gov/metar/data/
 
KGED 210354Z AUTO 11004KT 10SM CLR 18/17 A3025 RMK AO2 SLP242 T01780172